Time;durP1;ratioP1;P1;durP2;ratioP2;P2;SDS_P1;SDS_P2;PMS_P1;PMS_P2;Temp;Humidity;BMP_temperature;BMP_pressure;BME280_temperature;BME280_humidity;BME280_pressure;Samples;Min_cycle;Max_cycle;Signal;HPM_P1;HPM_P2
2021/03/05 00:01:12;;;;;;;11.10;3.13;;;;;;;7.52;54.83;102284.72;4941151;28;118749;-75
2021/03/05 00:03:39;;;;;;;14.75;3.08;;;;;;;7.50;54.96;102283.88;4940786;28;122429;-75
2021/03/05 00:06:07;;;;;;;12.98;3.30;;;;;;;7.51;55.06;102288.22;4952461;28;122116;-73
2021/03/05 00:08:34;;;;;;;12.20;3.20;;;;;;;7.50;54.91;102291.78;4937454;28;119752;-75
2021/03/05 00:11:01;;;;;;;13.43;3.13;;;;;;;7.50;55.06;102297.03;4946983;28;118845;-73
2021/03/05 00:13:27;;;;;;;16.67;3.78;;;;;;;7.49;55.02;102300.56;4932141;28;127371;-74
2021/03/05 00:15:55;;;;;;;12.35;3.47;;;;;;;7.48;55.32;102304.09;4936398;28;124037;-74
2021/03/05 00:18:22;;;;;;;17.08;3.95;;;;;;;7.47;55.27;102307.59;4945745;28;118475;-74
2021/03/05 00:20:51;;;;;;;14.07;3.58;;;;;;;7.47;55.55;102307.59;4953575;28;118709;-73
2021/03/05 00:23:18;;;;;;;12.65;3.20;;;;;;;7.46;55.32;102305.88;4932329;28;122702;-74
2021/03/05 00:25:45;;;;;;;22.05;4.20;;;;;;;7.45;55.60;102312.00;4958380;22;124756;-74
2021/03/05 00:28:12;;;;;;;14.10;4.28;;;;;;;7.45;55.69;102308.50;4936440;28;119291;-73
2021/03/05 00:30:38;;;;;;;12.55;4.28;;;;;;;7.47;55.49;102317.28;4944411;28;120012;-73
2021/03/05 00:33:06;;;;;;;16.83;4.68;;;;;;;7.48;55.85;102314.63;4940228;28;124383;-73
2021/03/05 00:35:52;;;;;;;14.88;4.70;;;;;;;7.52;55.62;102316.34;4940655;28;124182;-74
2021/03/05 00:38:20;;;;;;;13.95;5.25;;;;;;;7.54;55.88;102314.56;4957190;28;119705;-74
2021/03/05 00:40:47;;;;;;;18.77;4.80;;;;;;;7.55;55.70;102321.63;4947312;28;119085;-75
2021/03/05 00:43:13;;;;;;;13.60;5.10;;;;;;;7.55;55.64;102326.88;4930913;28;123907;-73
2021/03/05 00:45:40;;;;;;;20.08;5.50;;;;;;;7.57;56.01;102330.38;4941303;28;124090;-73
2021/03/05 00:48:07;;;;;;;12.60;5.60;;;;;;;7.57;56.06;102322.47;4943602;28;117653;-73
2021/03/05 00:50:34;;;;;;;14.98;6.32;;;;;;;7.60;55.85;102330.34;4946272;28;117955;-72
2021/03/05 00:53:04;;;;;;;15.27;6.57;;;;;;;7.62;56.33;102326.81;4943301;28;123376;-73
2021/03/05 00:55:30;;;;;;;15.35;6.43;;;;;;;7.63;55.93;102328.56;4939749;28;123401;-74
2021/03/05 00:58:03;;;;;;;16.27;6.30;;;;;;;7.66;56.04;102336.44;4942176;28;118270;-74
2021/03/05 01:00:30;;;;;;;17.67;6.68;;;;;;;7.67;56.30;102340.84;4933367;28;119720;-74
2021/03/05 01:02:57;;;;;;;19.77;6.93;;;;;;;7.70;56.22;102335.53;4937003;28;124048;-74
2021/03/05 01:05:25;;;;;;;15.73;6.97;;;;;;;7.70;56.13;102346.06;4930082;28;123131;-73
2021/03/05 01:08:01;;;;;;;17.55;6.93;;;;;;;7.71;56.08;102338.16;4938917;28;119044;-72
2021/03/05 01:10:35;;;;;;;17.27;7.65;;;;;;;7.71;56.46;102343.44;4943481;28;118625;-74
2021/03/05 01:13:02;;;;;;;15.38;8.43;;;;;;;7.71;56.20;102346.06;4946845;28;123827;-74
2021/03/05 01:15:29;;;;;;;17.08;8.40;;;;;;;7.71;56.21;102347.84;4944266;28;123832;-73
2021/03/05 01:17:55;;;;;;;17.00;8.75;;;;;;;7.72;56.19;102349.56;4935608;28;120484;-73
2021/03/05 01:20:25;;;;;;;21.17;10.55;;;;;;;7.72;56.37;102349.56;4943312;28;120049;-74
2021/03/05 01:22:53;;;;;;;19.92;9.95;;;;;;;7.71;56.24;102353.13;4946260;28;124620;-73
2021/03/05 01:25:25;;;;;;;17.65;10.02;;;;;;;7.69;56.30;102354.91;4941718;28;123970;-74
2021/03/05 01:27:52;;;;;;;18.25;10.10;;;;;;;7.68;56.34;102363.69;4944674;28;118970;-73
2021/03/05 01:30:20;;;;;;;16.27;10.23;;;;;;;7.68;56.36;102364.53;4945097;28;118916;-73
2021/03/05 01:32:47;;;;;;;20.13;10.55;;;;;;;7.68;56.31;102364.53;4932357;28;123951;-74
2021/03/05 01:35:17;;;;;;;16.83;10.73;;;;;;;7.67;56.18;102356.69;4942287;28;123247;-74
2021/03/05 01:37:44;;;;;;;17.83;10.88;;;;;;;7.66;56.22;102360.19;4945937;28;119621;-74
2021/03/05 01:40:15;;;;;;;17.63;11.55;;;;;;;7.64;56.24;102356.69;4945643;28;119174;-73
2021/03/05 01:42:42;;;;;;;17.40;9.68;;;;;;;7.64;56.12;102361.97;4946896;28;123995;-74
2021/03/05 01:45:17;;;;;;;18.52;10.20;;;;;;;7.62;56.14;102363.75;4946117;28;124555;-73
2021/03/05 01:47:44;;;;;;;17.70;11.27;;;;;;;7.62;55.94;102363.75;4946555;28;118521;-74
2021/03/05 01:50:15;;;;;;;19.13;10.80;;;;;;;7.59;56.12;102365.53;4940616;28;119510;-73
2021/03/05 01:52:49;;;;;;;18.08;10.95;;;;;;;7.58;56.24;102369.03;4933687;28;125206;-74
2021/03/05 01:55:19;;;;;;;18.90;11.20;;;;;;;7.56;55.90;102360.25;4942914;28;124087;-74
2021/03/05 01:57:46;;;;;;;20.50;10.60;;;;;;;7.53;55.68;102370.81;4942801;28;119285;-76
2021/03/05 02:00:14;;;;;;;17.13;10.35;;;;;;;7.51;55.91;102371.72;4935058;28;118258;-74
2021/03/05 02:02:41;;;;;;;16.55;10.30;;;;;;;7.48;56.02;102372.63;4952501;28;123889;-75
2021/03/05 02:05:08;;;;;;;17.27;10.02;;;;;;;7.47;56.23;102370.88;4950299;28;123967;-74
2021/03/05 02:07:35;;;;;;;16.88;11.25;;;;;;;7.45;55.73;102375.28;4950374;28;120309;-75
2021/03/05 02:10:05;;;;;;;17.08;10.93;;;;;;;7.41;55.64;102379.69;4952042;28;119620;-74
2021/03/05 02:12:31;;;;;;;14.55;10.07;;;;;;;7.38;55.87;102376.22;4952461;28;124328;-74
2021/03/05 02:14:58;;;;;;;18.42;11.15;;;;;;;7.35;55.42;102386.78;4948688;28;123870;-74
2021/03/05 02:17:31;;;;;;;17.80;10.63;;;;;;;7.31;55.65;102385.03;4951972;28;119092;-73
2021/03/05 02:20:04;;;;;;;19.27;10.40;;;;;;;7.26;55.88;102392.13;4950303;28;119145;-74
2021/03/05 02:23:08;;;;;;;16.13;9.93;;;;;;;7.22;55.57;102399.16;4950813;28;122250;-74
2021/03/05 02:25:53;;;;;;;17.35;9.55;;;;;;;7.15;55.48;102406.22;4948260;28;124004;-74
2021/03/05 02:28:38;;;;;;;15.10;9.53;;;;;;;7.06;55.68;102411.53;4949462;28;119583;-73
2021/03/05 02:31:08;;;;;;;15.17;9.87;;;;;;;7.02;55.49;102404.53;4950514;28;118973;-74
2021/03/05 02:33:55;;;;;;;17.30;10.30;;;;;;;6.95;55.79;102405.44;4949860;28;124679;-75
2021/03/05 02:36:30;;;;;;;15.40;10.05;;;;;;;6.90;55.55;102415.16;4949917;28;122948;-74
2021/03/05 02:39:19;;;;;;;17.27;9.77;;;;;;;6.83;55.57;102404.59;4950700;28;119467;-75
2021/03/05 02:41:53;;;;;;;15.05;8.80;;;;;;;6.79;56.01;102413.41;4950875;28;118632;-74
2021/03/05 02:44:27;;;;;;;17.60;9.00;;;;;;;6.75;55.60;102422.22;4948644;28;123467;-75
2021/03/05 02:47:01;;;;;;;13.43;8.80;;;;;;;6.69;55.86;102427.50;4949768;28;124218;-74
2021/03/05 02:49:30;;;;;;;17.48;9.57;;;;;;;6.65;55.86;102420.50;4931437;28;119007;-73
2021/03/05 02:52:01;;;;;;;14.32;9.15;;;;;;;6.59;55.74;102426.66;4944252;28;118992;-74
2021/03/05 02:54:29;;;;;;;13.60;9.40;;;;;;;6.54;55.86;102423.16;4948599;28;124064;-75
2021/03/05 02:56:58;;;;;;;13.50;8.70;;;;;;;6.50;56.11;102431.06;4951628;28;124630;-74
2021/03/05 02:59:28;;;;;;;12.77;8.70;;;;;;;6.46;55.84;102434.56;4950646;28;119879;-76
2021/03/05 03:01:57;;;;;;;14.80;9.10;;;;;;;6.41;56.08;102435.47;4950996;28;120216;-75
2021/03/05 03:04:27;;;;;;;15.95;8.98;;;;;;;6.36;55.84;102439.84;4948820;28;123473;-74
2021/03/05 03:06:55;;;;;;;14.98;8.85;;;;;;;6.33;55.85;102447.78;4950434;28;124222;-73
2021/03/05 03:09:24;;;;;;;16.13;9.15;;;;;;;6.30;56.08;102450.41;4947618;28;117948;-75
2021/03/05 03:11:51;;;;;;;16.58;8.65;;;;;;;6.23;55.83;102453.91;4951899;28;118080;-73
2021/03/05 03:14:19;;;;;;;13.60;9.13;;;;;;;6.17;56.03;102456.56;4951023;28;124137;-75
2021/03/05 03:16:46;;;;;;;13.88;8.80;;;;;;;6.11;56.09;102459.19;4938009;28;123337;-73
2021/03/05 03:19:15;;;;;;;15.38;9.10;;;;;;;6.06;56.12;102466.19;4951344;28;119828;-75
2021/03/05 03:21:42;;;;;;;15.77;10.13;;;;;;;5.99;56.16;102466.22;4950450;28;119787;-73
2021/03/05 03:24:09;;;;;;;13.45;8.73;;;;;;;5.93;56.24;102460.88;4949710;28;123512;-75
2021/03/05 03:26:37;;;;;;;14.00;8.50;;;;;;;5.87;56.28;102466.16;4950870;28;124101;-76
2021/03/05 03:29:11;;;;;;;13.65;8.63;;;;;;;5.83;56.35;102469.66;4951626;28;119321;-73
2021/03/05 03:31:39;;;;;;;12.50;8.63;;;;;;;5.79;56.69;102470.53;4952316;28;119468;-74
2021/03/05 03:34:07;;;;;;;13.82;8.77;;;;;;;5.75;56.23;102471.41;4950743;28;124071;-73
2021/03/05 03:36:39;;;;;;;15.40;9.32;;;;;;;5.70;56.42;102473.16;4948934;28;123259;-74
2021/03/05 03:39:09;;;;;;;18.38;8.95;;;;;;;5.65;56.33;102481.91;4949827;28;119461;-75
2021/03/05 03:41:38;;;;;;;14.15;8.27;;;;;;;5.61;56.22;102477.53;4952019;28;119143;-73
2021/03/05 03:44:06;;;;;;;15.55;8.20;;;;;;;5.59;56.32;102481.88;4950761;28;124667;-73
2021/03/05 03:46:36;;;;;;;15.40;8.65;;;;;;;5.56;56.57;102487.16;4950665;28;123116;-74
2021/03/05 03:49:12;;;;;;;16.25;9.13;;;;;;;5.52;56.42;102495.91;4951531;28;120111;-75
2021/03/05 03:51:43;;;;;;;15.98;8.60;;;;;;;5.49;56.36;102495.88;4949564;28;120570;-73
2021/03/05 03:54:14;;;;;;;14.70;8.82;;;;;;;5.45;56.61;102499.38;4949413;28;124337;-73
2021/03/05 03:56:43;;;;;;;14.43;8.38;;;;;;;5.41;56.45;102497.63;4952285;28;124091;-74
2021/03/05 03:59:13;;;;;;;16.30;9.43;;;;;;;5.36;56.73;102504.59;4938080;28;119616;-73
2021/03/05 04:01:43;;;;;;;15.90;9.45;;;;;;;5.34;56.66;102506.34;4954688;28;118771;-73
2021/03/05 04:04:12;;;;;;;17.35;9.43;;;;;;;5.30;56.86;102512.47;4953328;28;123219;-75
2021/03/05 04:06:39;;;;;;;17.95;8.82;;;;;;;5.28;56.83;102506.34;4954227;28;124233;-73
2021/03/05 04:09:09;;;;;;;16.83;10.00;;;;;;;5.23;56.87;102515.06;4953170;28;119751;-74
2021/03/05 04:11:38;;;;;;;16.13;9.10;;;;;;;5.19;56.86;102513.28;4950667;28;119703;-74
2021/03/05 04:14:05;;;;;;;15.55;8.25;;;;;;;5.16;56.86;102513.31;4951554;28;124293;-73
2021/03/05 04:16:32;;;;;;;16.23;9.45;;;;;;;5.13;56.69;102513.28;4951549;28;123894;-74
2021/03/05 04:18:59;;;;;;;16.63;8.32;;;;;;;5.10;56.69;102518.50;4953534;28;119344;-74
2021/03/05 04:21:29;;;;;;;13.52;8.20;;;;;;;5.09;56.89;102522.00;4952280;28;118899;-74
2021/03/05 04:23:56;;;;;;;13.85;7.78;;;;;;;5.07;56.84;102529.00;4950059;28;122125;-73
2021/03/05 04:26:23;;;;;;;15.10;8.50;;;;;;;5.05;56.59;102531.63;4952564;28;124095;-73
2021/03/05 04:28:50;;;;;;;14.07;9.50;;;;;;;5.03;56.57;102532.50;4951814;28;118819;-73
2021/03/05 04:31:17;;;;;;;14.57;8.18;;;;;;;5.00;56.71;102540.34;4953454;28;118950;-73
2021/03/05 04:33:44;;;;;;;15.80;8.80;;;;;;;4.97;56.51;102548.19;4950619;28;124632;-73
2021/03/05 04:36:10;;;;;;;13.00;7.50;;;;;;;4.91;56.62;102542.91;4951072;28;122077;-74
2021/03/05 04:38:56;;;;;;;;;;;;;;;4.87;56.53;102542.88;4950790;28;120716;-74
2021/03/05 04:41:23;;;;;;;11.45;7.15;;;;;;;4.85;56.50;102547.25;4952144;28;118176;-74
2021/03/05 04:43:52;;;;;;;15.77;7.82;;;;;;;4.81;56.51;102548.09;4947465;28;124392;-73
2021/03/05 04:46:18;;;;;;;15.30;8.00;;;;;;;4.79;56.51;102552.47;4952835;28;123860;-73
2021/03/05 04:48:45;;;;;;;18.25;8.70;;;;;;;4.76;56.59;102555.06;4953229;28;119477;-73
2021/03/05 04:51:12;;;;;;;16.38;8.13;;;;;;;4.73;56.65;102557.69;4951352;28;118793;-73
2021/03/05 04:53:39;;;;;;;13.80;8.10;;;;;;;4.70;56.50;102559.41;4957468;28;124404;-73
2021/03/05 04:56:05;;;;;;;12.38;6.57;;;;;;;4.67;56.46;102560.25;4939086;28;123725;-73
2021/03/05 04:58:32;;;;;;;13.02;6.95;;;;;;;4.64;56.23;102570.75;4935616;28;119496;-73
2021/03/05 05:00:59;;;;;;;11.63;6.38;;;;;;;4.60;55.99;102568.97;4942595;28;118019;-73
2021/03/05 05:03:27;;;;;;;13.30;5.95;;;;;;;4.60;56.05;102568.97;4943787;28;124169;-73
2021/03/05 05:05:53;;;;;;;11.77;6.25;;;;;;;4.58;55.99;102581.19;4937318;28;124748;-74
2021/03/05 05:08:20;;;;;;;11.93;5.65;;;;;;;4.56;56.11;102582.91;4952151;28;119653;-73
2021/03/05 05:10:47;;;;;;;12.30;5.40;;;;;;;4.53;56.21;102572.41;4952206;28;118783;-73
2021/03/05 05:13:13;;;;;;;11.32;5.72;;;;;;;4.53;55.79;102582.91;4951127;28;123280;-73
2021/03/05 05:15:40;;;;;;;9.60;5.93;;;;;;;4.51;55.63;102590.75;4952367;28;124766;-73
2021/03/05 05:18:07;;;;;;;8.57;4.75;;;;;;;4.52;55.58;102591.63;4951457;28;119500;-73
2021/03/05 05:20:34;;;;;;;10.85;4.88;;;;;;;4.51;55.29;102589.88;4951160;28;119793;-73
2021/03/05 05:23:00;;;;;;;9.98;5.47;;;;;;;4.47;55.21;102589.84;4950990;28;124020;-73
2021/03/05 05:25:27;;;;;;;9.35;5.18;;;;;;;4.45;55.26;102591.56;4953074;28;123520;-73
2021/03/05 05:27:56;;;;;;;9.52;4.68;;;;;;;4.44;55.09;102589.81;4953320;28;120305;-73
2021/03/05 05:30:23;;;;;;;8.50;5.13;;;;;;;4.43;55.04;102588.06;4953058;28;119437;-73
2021/03/05 05:32:51;;;;;;;12.13;5.20;;;;;;;4.40;55.10;102593.28;4951685;28;124291;-73
2021/03/05 05:35:18;;;;;;;9.88;5.03;;;;;;;4.39;54.74;102596.78;4951767;28;123954;-75
2021/03/05 05:37:45;;;;;;;10.02;4.80;;;;;;;4.39;54.81;102601.13;4949964;28;120442;-74
2021/03/05 05:40:12;;;;;;;7.07;4.35;;;;;;;4.36;54.80;102612.47;4934362;28;118315;-74
2021/03/05 05:42:39;;;;;;;7.90;4.80;;;;;;;4.35;54.53;102609.84;4948636;28;124024;-72
2021/03/05 05:45:06;;;;;;;8.38;4.55;;;;;;;4.34;54.49;102608.97;4951206;28;123120;-73
2021/03/05 05:47:36;;;;;;;10.18;4.85;;;;;;;4.31;54.21;102614.16;4952296;28;119817;-73
2021/03/05 05:50:06;;;;;;;8.60;4.80;;;;;;;4.28;54.50;102609.78;4950903;28;119487;-73
2021/03/05 05:52:34;;;;;;;10.27;4.75;;;;;;;4.26;54.34;102621.13;4935134;28;122982;-73
2021/03/05 05:55:03;;;;;;;8.27;4.28;;;;;;;4.25;54.38;102624.59;4951070;28;123798;-73
2021/03/05 05:57:32;;;;;;;6.68;4.22;;;;;;;4.23;54.49;102621.09;4952618;28;118600;-73
2021/03/05 05:59:59;;;;;;;9.02;4.82;;;;;;;4.23;54.50;102626.34;4951683;28;119386;-73
2021/03/05 06:02:28;;;;;;;8.43;4.38;;;;;;;4.22;54.66;102635.06;4950747;28;122590;-73
2021/03/05 06:04:56;;;;;;;9.30;4.82;;;;;;;4.21;54.64;102633.31;4937191;28;124636;-74
2021/03/05 06:07:24;;;;;;;10.90;5.03;;;;;;;4.21;54.72;102638.56;4953422;28;119331;-73
2021/03/05 06:10:07;;;;;;;10.63;5.25;;;;;;;4.21;54.66;102638.56;4939510;28;119698;-73
2021/03/05 06:12:34;;;;;;;10.02;5.00;;;;;;;4.19;54.63;102642.91;4953410;28;124916;-73
2021/03/05 06:15:01;;;;;;;12.35;4.97;;;;;;;4.18;54.63;102654.25;4950612;28;123393;-74
2021/03/05 06:17:42;;;;;;;11.27;5.60;;;;;;;4.16;54.50;102661.22;4934792;28;120015;-73
2021/03/05 06:20:10;;;;;;;10.15;5.25;;;;;;;4.14;54.49;102668.19;4935775;28;119295;-76
2021/03/05 06:22:37;;;;;;;11.02;4.85;;;;;;;4.10;54.63;102668.16;4950745;28;122104;-74
2021/03/05 06:25:09;;;;;;;11.32;5.07;;;;;;;4.07;54.63;102677.75;4962152;23;123989;-73
2021/03/05 06:27:38;;;;;;;11.00;5.00;;;;;;;4.03;54.56;102676.84;4957584;28;120033;-74
2021/03/05 06:30:07;;;;;;;10.23;5.30;;;;;;;4.02;54.72;102685.53;4950318;28;118728;-73
2021/03/05 06:32:37;;;;;;;11.50;5.28;;;;;;;3.98;54.72;102683.75;4949416;28;123827;-73
2021/03/05 06:35:05;;;;;;;13.05;5.40;;;;;;;3.96;54.79;102685.47;4956155;28;124578;-73
2021/03/05 06:37:46;;;;;;;11.18;5.50;;;;;;;3.93;54.91;102695.91;4949227;28;118690;-73
2021/03/05 06:40:30;;;;;;;12.95;5.22;;;;;;;3.91;54.83;102692.41;4948499;28;119362;-73
2021/03/05 06:42:57;;;;;;;10.38;5.30;;;;;;;3.91;55.13;102697.66;4931427;28;123444;-73
2021/03/05 06:45:33;;;;;;;8.00;4.18;;;;;;;3.92;55.00;102699.41;4935443;28;122777;-71
2021/03/05 06:48:06;;;;;;;10.93;4.50;;;;;;;3.94;55.00;102712.50;4938258;28;119059;-73
2021/03/05 06:50:38;;;;;;;9.68;4.80;;;;;;;3.94;54.98;102721.28;4951743;28;119490;-71
2021/03/05 06:53:25;;;;;;;9.15;4.80;;;;;;;3.95;55.13;102720.41;4953164;28;124130;-71
2021/03/05 06:55:52;;;;;;;6.90;4.07;;;;;;;4.15;55.18;102722.41;4951509;28;123466;-71
2021/03/05 06:58:19;;;;;;;10.73;4.13;;;;;;;4.42;55.75;102727.09;4951975;28;119834;-73
2021/03/05 07:00:46;;;;;;;9.15;3.97;;;;;;;4.64;56.26;102738.69;4947586;28;118955;-71
2021/03/05 07:03:23;;;;;;;7.97;4.22;;;;;;;4.88;56.25;102733.69;4949886;28;124554;-71
2021/03/05 07:05:53;;;;;;;9.10;3.90;;;;;;;5.12;55.78;102731.25;4948175;28;122644;-72
2021/03/05 07:08:39;;;;;;;9.18;4.10;;;;;;;5.29;54.62;102734.00;4952870;28;120074;-72
2021/03/05 07:11:11;;;;;;;9.85;3.65;;;;;;;5.37;54.08;102748.06;4932670;28;120272;-72
2021/03/05 07:13:49;;;;;;;8.20;3.60;;;;;;;5.42;53.54;102751.63;4947662;28;124290;-72
2021/03/05 07:16:15;;;;;;;7.70;3.60;;;;;;;5.47;53.48;102760.41;4946515;28;123673;-72
2021/03/05 07:18:42;;;;;;;9.20;3.40;;;;;;;5.47;53.36;102756.03;4952580;28;119125;-71
2021/03/05 07:21:10;;;;;;;8.48;3.83;;;;;;;5.51;53.10;102761.31;4951497;28;118846;-71
2021/03/05 07:23:38;;;;;;;8.52;3.70;;;;;;;5.49;52.93;102763.94;4936765;28;124441;-72
2021/03/05 07:26:06;;;;;;;6.07;3.33;;;;;;;5.48;52.85;102762.16;4938788;28;125579;-72
2021/03/05 07:28:35;;;;;;;9.90;3.80;;;;;;;5.48;52.73;102772.66;4943472;28;119354;-72
2021/03/05 07:31:03;;;;;;;7.07;3.40;;;;;;;5.47;52.64;102770.94;4951614;28;118069;-72
2021/03/05 07:33:35;;;;;;;10.10;4.03;;;;;;;5.45;52.78;102777.94;4927113;28;123223;-72
2021/03/05 07:36:03;;;;;;;6.15;3.88;;;;;;;5.44;52.41;102784.03;4935289;28;124019;-72
2021/03/05 07:38:33;;;;;;;9.75;3.47;;;;;;;5.43;52.38;102790.19;4950899;28;118832;-72
2021/03/05 07:41:09;;;;;;;7.63;3.97;;;;;;;5.41;52.14;102791.91;4937492;28;119386;-72
2021/03/05 07:43:38;;;;;;;7.60;3.85;;;;;;;5.38;52.31;102792.75;4943343;28;123269;-72
2021/03/05 07:46:05;;;;;;;7.50;3.85;;;;;;;5.36;52.01;102793.63;4943727;28;124116;-72
2021/03/05 07:48:33;;;;;;;8.55;3.65;;;;;;;5.34;52.15;102801.47;4939113;28;118602;-72
2021/03/05 07:51:00;;;;;;;8.60;3.90;;;;;;;5.33;52.13;102793.56;4935905;28;118419;-72
2021/03/05 07:53:27;;;;;;;11.23;3.70;;;;;;;5.31;52.08;102801.44;4934051;28;124260;-72
2021/03/05 07:55:54;;;;;;;6.15;3.72;;;;;;;5.33;52.03;102806.72;4935377;28;123710;-72
2021/03/05 07:58:46;;;;;;;9.70;3.83;;;;;;;5.32;52.32;102808.47;4902706;28;119608;-72
2021/03/05 08:01:12;;;;;;;7.72;3.75;;;;;;;5.34;52.34;102816.38;4949646;28;120479;-72
2021/03/05 08:03:54;;;;;;;7.70;3.85;;;;;;;5.35;52.27;102818.13;4949834;28;123944;-72
2021/03/05 08:06:30;;;;;;;9.10;3.90;;;;;;;5.37;52.06;102821.63;4950785;28;122711;-72
2021/03/05 08:09:15;;;;;;;9.43;4.25;;;;;;;5.38;52.12;102815.53;4951316;28;119160;-73
2021/03/05 08:11:42;;;;;;;7.75;3.65;;;;;;;5.41;52.18;102828.69;4938024;28;118844;-72
2021/03/05 08:14:24;;;;;;;7.80;4.07;;;;;;;5.41;52.19;102819.06;4946507;28;123456;-72
2021/03/05 08:16:52;;;;;;;6.60;3.65;;;;;;;5.43;51.78;102821.72;4932697;28;124771;-72
2021/03/05 08:19:19;;;;;;;7.22;3.85;;;;;;;5.44;51.96;102828.72;4932811;28;119702;-72
2021/03/05 08:21:53;;;;;;;10.40;3.75;;;;;;;5.46;52.19;102827.88;4930954;28;117665;-72
2021/03/05 08:24:25;;;;;;;8.75;4.03;;;;;;;5.50;51.96;102831.41;4956768;28;123947;-72
2021/03/05 08:27:31;;;;;;;5.63;3.50;;;;;;;5.52;51.98;102831.41;4951110;28;123909;-72
2021/03/05 08:30:19;;;;;;;8.30;3.70;;;;;;;5.57;52.24;102841.06;4951135;28;119866;-72
2021/03/05 08:32:58;;;;;;;9.27;3.97;;;;;;;5.60;52.11;102841.13;4941499;28;118584;-72
2021/03/05 08:35:28;;;;;;;9.90;3.35;;;;;;;5.64;51.89;102848.16;4934567;28;123719;-72
2021/03/05 08:37:58;;;;;;;6.85;3.10;;;;;;;5.68;51.78;102848.19;4959311;28;123618;-71
2021/03/05 08:40:27;;;;;;;5.70;3.10;;;;;;;5.70;51.63;102842.06;4966027;28;119712;-72
2021/03/05 08:43:06;;;;;;;5.95;3.38;;;;;;;5.74;51.52;102848.22;4968356;28;119360;-71
2021/03/05 08:45:33;;;;;;;7.32;3.28;;;;;;;5.77;51.65;102843.88;4968292;28;124836;-72
2021/03/05 08:48:02;;;;;;;6.75;2.75;;;;;;;5.83;51.23;102849.16;4970502;28;124016;-73
2021/03/05 08:50:35;;;;;;;5.32;2.80;;;;;;;5.91;51.53;102854.47;4964125;28;119843;-72
2021/03/05 08:53:04;;;;;;;8.43;3.15;;;;;;;5.97;51.50;102851.94;4948292;28;120214;-72
2021/03/05 08:55:33;;;;;;;6.50;2.65;;;;;;;6.03;51.45;102859.88;4918491;28;122993;-72
2021/03/05 08:58:01;;;;;;;7.40;2.70;;;;;;;6.10;51.04;102868.66;4940884;28;123141;-72
2021/03/05 09:00:33;;;;;;;8.70;2.83;;;;;;;6.17;50.74;102869.59;4952895;28;118469;-72
2021/03/05 09:03:08;;;;;;;7.75;2.83;;;;;;;6.22;50.84;102862.63;4951495;28;118312;-72
2021/03/05 09:05:40;;;;;;;5.07;2.22;;;;;;;6.31;50.76;102878.47;4952358;28;123491;-72
2021/03/05 09:08:08;;;;;;;7.00;2.58;;;;;;;6.38;50.63;102864.44;4952340;28;123187;-72
2021/03/05 09:10:49;;;;;;;6.50;2.47;;;;;;;6.48;50.75;102869.75;4963245;28;116990;-72
2021/03/05 09:13:20;;;;;;;7.15;2.60;;;;;;;6.55;50.72;102867.13;4935989;28;118267;-72
2021/03/05 09:15:56;;;;;;;7.63;2.30;;;;;;;6.62;50.50;102873.31;4932757;28;123955;-72
2021/03/05 09:18:30;;;;;;;6.18;2.17;;;;;;;6.68;49.98;102865.44;4937947;28;125008;-72
2021/03/05 09:21:03;;;;;;;8.18;2.20;;;;;;;6.73;49.64;102870.75;4949394;28;119274;-72
2021/03/05 09:23:33;;;;;;;5.95;2.30;;;;;;;6.77;49.62;102865.47;4942890;28;117939;-72
2021/03/05 09:26:02;;;;;;;7.57;2.53;;;;;;;6.85;49.92;102877.81;4952832;28;123832;-72
2021/03/05 09:28:36;;;;;;;6.38;2.53;;;;;;;6.91;49.73;102875.19;4971861;28;123412;-72
2021/03/05 09:31:04;;;;;;;5.88;2.20;;;;;;;6.98;49.93;102884.88;4970874;28;119212;-72
2021/03/05 09:33:36;;;;;;;5.95;2.30;;;;;;;7.06;49.72;102880.47;4951458;28;118798;-72
2021/03/05 09:36:10;;;;;;;8.63;2.55;;;;;;;7.15;49.30;102874.38;4950054;28;123235;-72
2021/03/05 09:38:39;;;;;;;8.18;2.22;;;;;;;7.21;48.80;102885.81;4949543;28;123811;-72
2021/03/05 09:41:26;;;;;;;4.72;2.08;;;;;;;7.26;49.00;102884.94;4949999;28;120712;-72
2021/03/05 09:44:04;;;;;;;5.13;2.15;;;;;;;7.30;48.36;102884.06;4947229;28;120168;-72
2021/03/05 09:46:32;;;;;;;6.25;2.08;;;;;;;7.35;48.95;102888.47;4950605;28;124068;-72
2021/03/05 09:49:19;;;;;;;7.13;2.15;;;;;;;7.40;48.88;102891.09;4939876;28;124637;-72
2021/03/05 09:51:46;;;;;;;5.72;2.00;;;;;;;7.48;48.60;102889.34;4939314;28;118893;-72
2021/03/05 09:54:12;;;;;;;7.22;2.10;;;;;;;7.53;48.25;102887.59;4949440;28;119428;-72
2021/03/05 09:56:44;;;;;;;4.18;1.73;;;;;;;7.57;47.44;102894.63;4942407;28;123833;-72
2021/03/05 09:59:12;;;;;;;4.53;2.10;;;;;;;7.61;47.58;102895.53;4953449;28;122964;-72
2021/03/05 10:01:43;;;;;;;7.25;2.20;;;;;;;7.65;47.58;102892.00;4938971;28;119079;-72
2021/03/05 10:04:12;;;;;;;5.97;2.03;;;;;;;7.69;47.66;102884.97;4942666;28;118885;-72
2021/03/05 10:06:39;;;;;;;8.63;2.17;;;;;;;7.74;47.91;102896.38;4931852;28;123530;-72
2021/03/05 10:09:08;;;;;;;5.35;2.13;;;;;;;7.79;47.17;102894.63;4948614;28;124328;-72
2021/03/05 10:11:37;;;;;;;6.63;2.40;;;;;;;7.83;46.58;102901.66;4949294;28;120066;-72
2021/03/05 10:14:08;;;;;;;5.40;2.05;;;;;;;7.84;46.30;102892.88;4947755;28;116651;-72
2021/03/05 10:16:37;;;;;;;6.43;2.20;;;;;;;7.86;46.20;102893.75;4947660;28;123027;-72
2021/03/05 10:19:10;;;;;;;5.18;2.20;;;;;;;7.89;46.26;102885.84;4951383;28;124036;-72
2021/03/05 10:21:42;;;;;;;6.47;2.15;;;;;;;7.94;46.36;102894.63;4952446;28;119123;-72
2021/03/05 10:24:10;;;;;;;6.07;2.08;;;;;;;7.99;46.45;102890.22;4951883;28;118039;-72
2021/03/05 10:26:38;;;;;;;7.03;2.00;;;;;;;8.06;46.29;102898.13;4949528;28;124012;-72
2021/03/05 10:29:07;;;;;;;5.75;2.05;;;;;;;8.12;45.94;102900.78;4938211;28;123417;-72
2021/03/05 10:31:40;;;;;;;6.13;1.90;;;;;;;8.18;46.50;102898.13;4939233;28;120262;-72
2021/03/05 10:34:28;;;;;;;6.57;2.20;;;;;;;8.26;46.45;102906.88;4929439;28;118853;-72
2021/03/05 10:36:58;;;;;;;6.93;2.17;;;;;;;8.32;45.99;102906.88;4938236;28;123704;-72
2021/03/05 10:39:28;;;;;;;4.15;1.70;;;;;;;8.37;45.74;102905.09;4935776;28;124596;-72
2021/03/05 10:42:01;;;;;;;4.80;1.80;;;;;;;8.42;45.20;102912.16;4937813;28;118158;-72
2021/03/05 10:44:29;;;;;;;6.22;2.15;;;;;;;8.46;45.25;102919.22;4945609;28;118776;-73
2021/03/05 10:47:01;;;;;;;5.80;1.55;;;;;;;8.51;45.40;102912.13;4945936;28;124711;-73
2021/03/05 10:49:28;;;;;;;4.53;1.80;;;;;;;8.56;44.83;102920.94;4947704;28;123666;-72
2021/03/05 10:51:56;;;;;;;5.63;1.90;;;;;;;8.62;45.07;102926.19;4940240;28;118828;-72
2021/03/05 10:54:22;;;;;;;5.32;1.80;;;;;;;8.67;43.87;102919.13;4957855;28;119006;-73
2021/03/05 10:56:53;;;;;;;5.00;1.70;;;;;;;8.72;43.51;102921.75;4940780;28;122839;-72
2021/03/05 10:59:21;;;;;;;5.18;2.05;;;;;;;8.75;43.49;102927.91;4948965;28;123324;-72
2021/03/05 11:01:49;;;;;;;4.38;1.67;;;;;;;8.81;43.06;102926.13;4949530;28;118810;-72
2021/03/05 11:04:16;;;;;;;3.13;1.50;;;;;;;8.85;42.54;102922.56;4945948;28;118860;-74
2021/03/05 11:06:43;;;;;;;7.35;1.70;;;;;;;8.89;42.68;102924.31;4931915;28;123462;-73
2021/03/05 11:09:10;;;;;;;3.55;1.45;;;;;;;8.92;42.58;102930.47;4946584;28;124455;-74
2021/03/05 11:11:36;;;;;;;4.20;1.60;;;;;;;8.98;42.72;102928.69;4951010;28;119701;-73
2021/03/05 11:14:03;;;;;;;3.90;1.60;;;;;;;9.02;41.69;102926.00;4952598;28;119221;-73
2021/03/05 11:16:30;;;;;;;4.55;1.50;;;;;;;9.05;41.38;102933.06;4950541;28;123565;-73
2021/03/05 11:18:57;;;;;;;3.10;1.45;;;;;;;9.06;41.39;102933.06;4952488;28;123752;-73
2021/03/05 11:21:24;;;;;;;8.20;2.08;;;;;;;9.10;42.09;102934.81;4950680;28;118968;-73
2021/03/05 11:23:52;;;;;;;2.92;1.30;;;;;;;9.15;41.68;102947.97;4934521;28;118686;-73
2021/03/05 11:26:18;;;;;;;4.20;1.50;;;;;;;9.20;41.24;102940.03;4950657;28;124219;-73
2021/03/05 11:28:45;;;;;;;3.83;1.23;;;;;;;9.23;40.91;102934.72;4950814;28;122404;-73
2021/03/05 11:31:12;;;;;;;7.30;1.33;;;;;;;9.23;39.60;102943.56;4950516;28;118848;-73
2021/03/05 11:33:39;;;;;;;5.43;1.60;;;;;;;9.25;40.22;102955.00;4950569;28;119027;-73